createdAt,value
2023-03-12T00:02:11.728Z,97759.03
2023-03-12T00:04:38.874Z,97756.56
2023-03-12T00:07:06.812Z,97758.19
2023-03-12T00:09:38.888Z,97711.16
2023-03-12T00:12:06.945Z,97732.69
2023-03-12T00:14:34.240Z,97742.28
2023-03-12T00:17:01.321Z,97734.53
2023-03-12T00:19:28.542Z,97731.97
2023-03-12T00:21:55.583Z,97718.38
2023-03-12T00:24:22.600Z,97681.34
2023-03-12T00:26:49.585Z,97701.13
2023-03-12T00:29:16.628Z,97716.78
2023-03-12T00:31:43.758Z,97703.22
2023-03-12T00:34:11.266Z,97678.19
2023-03-12T00:36:38.456Z,97701.31
2023-03-12T00:39:05.458Z,97672.31
2023-03-12T00:41:32.441Z,97666.41
2023-03-12T00:43:59.554Z,97682.63
2023-03-12T00:46:27.082Z,97673.34
2023-03-12T00:48:54.179Z,97679.38
2023-03-12T00:51:21.269Z,97661.38
2023-03-12T00:53:48.373Z,97660.66
2023-03-12T00:56:15.998Z,97658.06
2023-03-12T00:58:43.442Z,97618.59
2023-03-12T01:01:11.312Z,97635.88
2023-03-12T01:03:38.769Z,97641.13
2023-03-12T01:06:06.608Z,97630.81
2023-03-12T01:08:34.127Z,97615.44
2023-03-12T01:11:01.230Z,97620.56
2023-03-12T01:13:28.483Z,97594.16
2023-03-12T01:15:55.877Z,97606.25
2023-03-12T01:18:22.966Z,97595.16
2023-03-12T01:20:50.021Z,97607.97
2023-03-12T01:23:17.168Z,97585.59
2023-03-12T01:25:44.176Z,97601.13
2023-03-12T01:28:11.259Z,97592.66
2023-03-12T01:30:38.572Z,97575.59
2023-03-12T01:33:05.566Z,97582.38
2023-03-12T01:35:37.228Z,97576.47
2023-03-12T01:38:04.481Z,97561.91
2023-03-12T01:40:34.927Z,97555.00
2023-03-12T01:43:25.323Z,97561.97
2023-03-12T01:46:11.065Z,97559.41
2023-03-12T01:48:45.417Z,97561.09
2023-03-12T01:51:16.191Z,97552.50
2023-03-12T01:53:47.352Z,97547.50
2023-03-12T01:56:17.419Z,97543.25
2023-03-12T01:58:52.192Z,97543.22
2023-03-12T02:01:20.384Z,97539.88
2023-03-12T02:03:50.543Z,97536.50
2023-03-12T02:06:23.633Z,97521.13
2023-03-12T02:08:51.419Z,97511.75
2023-03-12T02:11:18.408Z,97484.28
2023-03-12T02:13:45.516Z,97499.75
2023-03-12T02:16:13.511Z,97500.63
2023-03-12T02:18:40.625Z,97516.09
2023-03-12T02:21:19.877Z,97506.63
2023-03-12T02:24:09.907Z,97499.88
2023-03-12T02:26:39.335Z,97492.09
2023-03-12T02:29:08.842Z,97493.06
2023-03-12T02:31:43.172Z,97488.78
2023-03-12T02:34:11.002Z,97486.25
2023-03-12T02:36:38.140Z,97469.16
2023-03-12T02:39:06.048Z,97438.31
2023-03-12T02:41:38.124Z,97475.09
2023-03-12T02:44:08.032Z,97471.72
2023-03-12T02:46:46.229Z,97454.66
2023-03-12T02:49:14.319Z,97448.63
2023-03-12T02:51:43.895Z,97458.97
2023-03-12T02:54:12.319Z,97441.00
2023-03-12T02:56:40.275Z,97435.00
2023-03-12T02:59:09.590Z,97429.03
2023-03-12T03:01:41.218Z,97402.50
2023-03-12T03:04:09.677Z,97429.91
2023-03-12T03:06:39.453Z,97419.66
2023-03-12T03:09:06.528Z,97413.69
2023-03-12T03:11:33.666Z,97413.69
2023-03-12T03:14:04.491Z,97405.13
2023-03-12T03:16:32.058Z,97398.28
2023-03-12T03:18:59.432Z,97393.09
2023-03-12T03:21:26.863Z,97394.00
2023-03-12T03:23:53.926Z,97391.41
2023-03-12T03:26:23.583Z,97387.19
2023-03-12T03:28:51.275Z,97387.22
2023-03-12T03:31:18.694Z,97381.25
2023-03-12T03:33:46.473Z,97383.81
2023-03-12T03:36:15.074Z,97366.69
2023-03-12T03:38:53.798Z,97338.44
2023-03-12T03:41:21.641Z,97364.16
2023-03-12T03:43:49.098Z,97344.44
2023-03-12T03:46:19.181Z,97359.84
2023-03-12T03:48:51.198Z,97338.47
2023-03-12T03:51:18.404Z,97352.16
2023-03-12T03:53:48.658Z,97342.78
2023-03-12T03:56:16.475Z,97333.34
2023-03-12T03:58:49.458Z,97335.03
2023-03-12T04:01:19.029Z,97305.94
2023-03-12T04:03:47.229Z,97305.09
2023-03-12T04:06:14.268Z,97320.50
2023-03-12T04:08:41.937Z,97277.69
2023-03-12T04:11:17.086Z,97299.13
2023-03-12T04:13:44.765Z,97303.41
2023-03-12T04:16:14.622Z,97300.00
2023-03-12T04:18:42.208Z,97288.00
2023-03-12T04:21:11.358Z,97293.16
2023-03-12T04:23:39.737Z,97283.72
2023-03-12T04:26:08.456Z,97280.28
2023-03-12T04:28:37.249Z,97282.88
2023-03-12T04:31:08.061Z,97280.28
2023-03-12T04:33:40.858Z,97260.59
2023-03-12T04:36:09.679Z,97265.72
2023-03-12T04:38:40.355Z,97249.47
2023-03-12T04:41:11.380Z,97259.75
2023-03-12T04:43:41.993Z,97255.47
2023-03-12T04:46:09.591Z,97237.50
2023-03-12T04:48:37.908Z,97245.22
2023-03-12T04:51:06.651Z,97255.47
2023-03-12T04:53:34.023Z,97243.47
2023-03-12T04:56:02.538Z,97246.91
2023-03-12T04:58:30.821Z,97243.47
2023-03-12T05:00:58.331Z,97236.63
2023-03-12T05:03:25.580Z,97241.78
2023-03-12T05:05:52.875Z,97243.47
2023-03-12T05:08:20.042Z,97234.06
2023-03-12T05:10:47.265Z,97228.06
2023-03-12T05:13:22.509Z,97220.34
2023-03-12T05:15:56.519Z,97182.75
2023-03-12T05:18:23.763Z,97218.63
2023-03-12T05:21:02.172Z,97217.75
2023-03-12T05:23:30.734Z,97220.28
2023-03-12T05:25:58.748Z,97182.63
2023-03-12T05:28:28.668Z,97157.88
2023-03-12T05:31:00.201Z,97198.00
2023-03-12T05:33:29.250Z,97187.72
2023-03-12T05:35:58.861Z,97203.09
2023-03-12T05:38:26.533Z,97180.91
2023-03-12T05:40:55.536Z,97189.38
2023-03-12T05:43:23.391Z,97193.69
2023-03-12T05:45:51.671Z,97182.56
2023-03-12T05:48:19.572Z,97181.66
2023-03-12T05:50:46.689Z,97173.94
2023-03-12T05:53:13.862Z,97168.78
2023-03-12T05:55:41.920Z,97129.50
2023-03-12T05:58:09.790Z,97173.03
2023-03-12T06:00:39.042Z,97164.44
2023-03-12T06:03:08.854Z,97160.16
2023-03-12T06:05:37.160Z,97144.72
2023-03-12T06:08:05.833Z,97160.06
2023-03-12T06:10:33.028Z,97136.97
2023-03-12T06:13:00.121Z,97147.22
2023-03-12T06:15:27.176Z,97150.56
2023-03-12T06:17:54.240Z,97147.91
2023-03-12T06:20:21.463Z,97149.56
2023-03-12T06:22:48.833Z,97126.47
2023-03-12T06:25:15.952Z,97146.97
2023-03-12T06:27:43.074Z,97126.38
2023-03-12T06:30:10.704Z,97133.25
2023-03-12T06:32:37.752Z,97139.19
2023-03-12T06:35:05.995Z,97140.91
2023-03-12T06:37:33.073Z,97124.59
2023-03-12T06:40:00.122Z,97131.31
2023-03-12T06:42:27.162Z,97121.91
2023-03-12T06:44:54.157Z,97132.06
2023-03-12T06:47:21.450Z,97136.47
2023-03-12T06:49:48.471Z,97106.47
2023-03-12T06:52:15.559Z,97126.88
2023-03-12T06:54:42.677Z,97100.34
2023-03-12T06:57:09.752Z,97114.03
2023-03-12T06:59:37.118Z,97105.41
2023-03-12T07:02:04.195Z,97104.47
2023-03-12T07:04:31.246Z,97096.75
2023-03-12T07:06:58.282Z,97104.41
2023-03-12T07:09:25.417Z,97096.69
2023-03-12T07:11:52.428Z,97100.94
2023-03-12T07:14:21.389Z,97101.81
2023-03-12T07:16:48.544Z,97093.34
2023-03-12T07:19:15.657Z,97055.66
2023-03-12T07:21:42.679Z,97073.47
2023-03-12T07:24:10.088Z,97075.09
2023-03-12T07:26:37.138Z,97016.97
2023-03-12T07:29:05.307Z,97071.59
2023-03-12T07:31:32.460Z,97039.03
2023-03-12T07:33:59.581Z,97059.44
2023-03-12T07:36:26.910Z,97044.94
2023-03-12T07:38:54.034Z,97055.19
2023-03-12T07:41:21.580Z,97053.50
2023-03-12T07:43:48.636Z,97050.84
2023-03-12T07:46:16.045Z,97047.38
2023-03-12T07:48:44.407Z,97047.44
2023-03-12T07:51:11.862Z,97042.22
2023-03-12T07:53:38.884Z,97038.78
2023-03-12T07:56:06.419Z,97036.13
2023-03-12T07:58:36.597Z,97026.69
2023-03-12T08:01:03.940Z,97025.91
2023-03-12T08:03:31.160Z,97008.63
2023-03-12T08:06:00.580Z,97014.72
2023-03-12T08:08:28.875Z,97018.94
2023-03-12T08:10:55.889Z,97020.53
2023-03-12T08:13:24.508Z,97015.44
2023-03-12T08:15:54.441Z,97016.25
2023-03-12T08:18:22.225Z,96989.69
2023-03-12T08:20:53.564Z,97006.97
2023-03-12T08:23:21.500Z,97004.56
2023-03-12T08:25:49.830Z,96996.72
2023-03-12T08:28:18.329Z,97003.44
2023-03-12T08:30:50.778Z,97005.13
2023-03-12T08:33:18.112Z,96993.19
2023-03-12T08:35:45.318Z,96995.75
2023-03-12T08:38:12.368Z,96982.19
2023-03-12T08:40:39.628Z,96962.41
2023-03-12T08:43:07.742Z,96963.13
2023-03-12T08:45:38.029Z,96956.19
2023-03-12T08:48:06.560Z,96950.03
2023-03-12T08:50:33.715Z,96955.41
2023-03-12T08:53:01.381Z,96923.59
2023-03-12T08:55:28.473Z,96938.88
2023-03-12T08:57:56.587Z,96934.56
2023-03-12T09:00:23.608Z,96888.59
2023-03-12T09:02:52.295Z,96913.06
2023-03-12T09:05:19.763Z,96905.56
2023-03-12T09:07:46.882Z,96912.84
2023-03-12T09:10:13.936Z,96895.13
2023-03-12T09:12:41.021Z,96903.56
2023-03-12T09:15:10.042Z,96909.22
2023-03-12T09:17:37.776Z,96898.13
2023-03-12T09:20:09.015Z,96899.03
2023-03-12T09:22:37.336Z,96893.97
2023-03-12T09:25:05.783Z,96897.31
2023-03-12T09:27:37.388Z,96899.88
2023-03-12T09:30:06.747Z,96889.41
2023-03-12T09:32:34.159Z,96884.22
2023-03-12T09:35:01.380Z,96890.41
2023-03-12T09:37:28.619Z,96883.72
2023-03-12T09:39:55.705Z,96874.09
2023-03-12T09:42:33.090Z,96850.31
2023-03-12T09:45:03.908Z,96859.56
2023-03-12T09:47:33.828Z,96849.00
2023-03-12T09:50:11.323Z,96837.78
2023-03-12T09:52:51.528Z,96808.78
2023-03-12T09:55:22.735Z,96838.47
2023-03-12T09:57:51.613Z,96841.09
2023-03-12T10:00:24.729Z,96835.91
2023-03-12T10:02:55.461Z,96827.50
2023-03-12T10:05:51.084Z,96830.25
2023-03-12T10:08:39.847Z,96818.09
2023-03-12T10:11:09.789Z,96801.00
2023-03-12T10:13:42.665Z,96801.75
2023-03-12T10:17:03.198Z,96792.22
2023-03-12T10:19:42.652Z,96807.56
2023-03-12T10:22:19.793Z,96738.81
2023-03-12T10:25:00.636Z,96792.22
2023-03-12T10:27:30.498Z,96784.59
2023-03-12T10:29:58.374Z,96780.28
2023-03-12T10:32:37.740Z,96775.22
2023-03-12T10:35:22.238Z,96769.22
2023-03-12T10:37:54.290Z,96760.53
2023-03-12T10:40:28.489Z,96753.69
2023-03-12T10:42:56.018Z,96743.19
2023-03-12T10:45:34.852Z,96703.19
2023-03-12T10:48:18.512Z,96731.00
2023-03-12T10:51:20.358Z,96712.59
2023-03-12T10:53:50.166Z,96743.78
2023-03-12T10:56:19.563Z,96723.97
2023-03-12T10:58:53.165Z,96694.16
2023-03-12T11:01:26.531Z,96725.44
2023-03-12T11:04:09.769Z,96716.97
2023-03-12T11:06:36.813Z,96722.44
2023-03-12T11:09:16.639Z,96694.22
2023-03-12T11:11:47.764Z,96693.91
2023-03-12T11:14:20.082Z,96713.34
2023-03-12T11:16:47.127Z,96689.59
2023-03-12T11:19:26.573Z,96690.31
2023-03-12T11:22:04.780Z,96686.03
2023-03-12T11:24:32.050Z,96698.88
2023-03-12T11:27:10.953Z,96704.50
2023-03-12T11:29:47.323Z,96689.78
2023-03-12T11:32:37.526Z,96696.50
2023-03-12T11:35:10.909Z,96692.00
2023-03-12T11:38:16.298Z,96695.66
2023-03-12T11:41:07.592Z,96693.94
2023-03-12T11:43:44.444Z,96678.22
2023-03-12T11:46:36.339Z,96679.19
2023-03-12T11:49:09.156Z,96679.19
2023-03-12T11:51:54.722Z,96683.66
2023-03-12T11:54:49.665Z,96673.09
2023-03-12T11:57:33.914Z,96678.25
2023-03-12T12:00:17.482Z,96697.19
2023-03-12T12:03:12.555Z,96736.72
2023-03-12T12:06:02.279Z,96732.69
2023-03-12T12:09:10.533Z,96755.47
2023-03-12T12:12:22.070Z,96780.09
2023-03-12T12:15:28.154Z,96795.28
2023-03-12T12:18:26.061Z,96815.59
2023-03-12T12:21:11.654Z,96827.22
2023-03-12T12:23:54.819Z,96818.31
2023-03-12T12:26:36.878Z,96832.22
2023-03-12T12:29:09.822Z,96847.03
2023-03-12T12:31:48.938Z,96866.13
2023-03-12T12:34:53.730Z,96885.13
2023-03-12T12:37:54.864Z,96878.44
2023-03-12T12:40:38.261Z,96855.75
2023-03-12T12:43:35.543Z,96902.75
2023-03-12T12:46:06.578Z,96906.25
2023-03-12T12:48:48.911Z,96906.38
2023-03-12T12:51:19.832Z,96914.16
2023-03-12T12:54:02.985Z,96921.03
2023-03-12T12:56:47.158Z,96913.38
2023-03-12T12:59:32.844Z,96920.25
2023-03-12T13:02:02.748Z,96924.56
2023-03-12T13:04:37.891Z,96916.94
2023-03-12T13:07:14.029Z,96889.69
2023-03-12T13:09:47.181Z,96939.13
2023-03-12T13:12:16.462Z,96953.69
2023-03-12T13:14:45.148Z,96949.44
2023-03-12T13:17:50.901Z,96948.56
2023-03-12T13:20:21.087Z,96980.22
2023-03-12T13:23:09.519Z,96983.66
2023-03-12T13:25:59.118Z,96981.94
2023-03-12T13:28:26.581Z,97015.28
2023-03-12T13:30:54.517Z,97009.31
2023-03-12T13:33:48.654Z,97023.78
2023-03-12T13:36:15.727Z,97022.06
2023-03-12T13:39:17.656Z,97032.31
2023-03-12T13:41:55.077Z,97045.09
2023-03-12T13:44:29.016Z,97051.00
2023-03-12T13:47:03.556Z,97050.88
2023-03-12T13:49:43.669Z,97068.72
2023-03-12T13:52:19.551Z,97067.78
2023-03-12T13:54:59.748Z,97071.03
2023-03-12T13:57:38.767Z,97082.94
2023-03-12T14:00:11.914Z,97071.69
2023-03-12T14:02:49.214Z,97097.28
2023-03-12T14:05:17.165Z,97078.50
2023-03-12T14:07:50.129Z,97096.44
2023-03-12T14:10:35.894Z,97103.19
2023-03-12T14:13:21.807Z,97105.50
2023-03-12T14:16:03.474Z,97052.13
2023-03-12T14:18:34.600Z,97121.31
2023-03-12T14:21:10.716Z,96961.16
2023-03-12T14:23:41.021Z,97134.03
2023-03-12T14:26:09.731Z,97145.03
2023-03-12T14:28:41.925Z,97138.06
2023-03-12T14:31:15.007Z,97158.50
2023-03-12T14:33:57.102Z,97177.22
2023-03-12T14:36:35.305Z,97175.47
2023-03-12T14:39:20.864Z,97192.50
2023-03-12T14:41:59.165Z,97193.28
2023-03-12T14:44:28.836Z,97191.56
2023-03-12T14:47:07.693Z,97211.22
2023-03-12T14:49:41.097Z,97188.94
2023-03-12T14:52:11.220Z,97218.91
2023-03-12T14:54:39.861Z,97229.16
2023-03-12T14:57:15.660Z,97227.38
2023-03-12T14:59:53.349Z,97221.34
2023-03-12T15:02:20.905Z,97241.75
2023-03-12T15:04:50.129Z,97243.41
2023-03-12T15:07:22.161Z,97265.69
2023-03-12T15:09:52.268Z,97277.63
2023-03-12T15:12:26.083Z,97280.13
2023-03-12T15:15:03.531Z,97282.59
2023-03-12T15:17:32.072Z,97301.38
2023-03-12T15:20:00.487Z,97298.78
2023-03-12T15:22:28.557Z,97304.66
2023-03-12T15:24:55.688Z,97313.78
2023-03-12T15:27:25.869Z,97321.47
2023-03-12T15:29:53.138Z,97334.09
2023-03-12T15:32:24.947Z,97351.72
2023-03-12T15:34:53.997Z,97372.75
2023-03-12T15:37:24.760Z,97397.97
2023-03-12T15:39:53.450Z,97408.06
2023-03-12T15:42:24.212Z,97413.53
2023-03-12T15:45:03.377Z,97385.88
2023-03-12T15:47:34.097Z,97430.38
2023-03-12T15:50:04.716Z,97448.63
2023-03-12T15:52:36.506Z,97475.66
2023-03-12T15:55:12.333Z,97474.66
2023-03-12T15:57:46.605Z,97491.28
2023-03-12T16:00:18.469Z,97435.03
2023-03-12T16:02:56.377Z,97493.38
2023-03-12T16:05:27.391Z,97487.91
2023-03-12T16:07:54.926Z,97521.28
2023-03-12T16:10:25.509Z,97535.75
2023-03-12T16:12:59.929Z,97483.16
2023-03-12T16:15:32.705Z,97544.22
2023-03-12T16:18:00.124Z,97548.47
2023-03-12T16:20:27.716Z,97547.59
2023-03-12T16:22:55.028Z,97542.44
2023-03-12T16:25:23.280Z,97557.97
2023-03-12T16:27:53.259Z,97577.66
2023-03-12T16:30:28.540Z,97585.28
2023-03-12T16:32:56.719Z,97598.78
2023-03-12T16:35:23.937Z,97611.66
2023-03-12T16:37:50.970Z,97627.09
2023-03-12T16:40:30.843Z,97640.63
2023-03-12T16:43:03.651Z,97634.50
2023-03-12T16:45:33.966Z,97646.34
2023-03-12T16:48:03.875Z,97656.50
2023-03-12T16:50:31.297Z,97671.69
2023-03-12T16:52:59.780Z,97618.09
2023-03-12T16:55:45.151Z,97687.91
2023-03-12T16:58:14.309Z,97681.78
2023-03-12T17:00:41.650Z,97683.31
2023-03-12T17:03:18.421Z,97713.25
2023-03-12T17:05:46.106Z,97719.22
2023-03-12T17:08:14.611Z,97718.28
2023-03-12T17:10:41.880Z,97735.25
2023-03-12T17:13:19.036Z,97747.78
2023-03-12T17:15:46.513Z,97740.69
2023-03-12T17:18:13.861Z,97773.28
2023-03-12T17:20:41.180Z,97780.69
2023-03-12T17:23:09.077Z,97765.09
2023-03-12T17:25:38.840Z,97794.09
2023-03-12T17:28:07.169Z,97791.34
2023-03-12T17:30:35.238Z,97798.88
2023-03-12T17:33:14.022Z,97801.22
2023-03-12T17:35:41.759Z,97813.06
2023-03-12T17:38:09.656Z,97827.59
2023-03-12T17:40:41.507Z,97826.84
2023-03-12T17:43:08.744Z,97837.88
2023-03-12T17:45:37.179Z,97846.50
2023-03-12T17:48:04.400Z,97843.09
2023-03-12T17:50:32.146Z,97860.19
2023-03-12T17:52:59.230Z,97866.94
2023-03-12T17:55:26.294Z,97888.22
2023-03-12T17:57:53.400Z,97886.50
2023-03-12T18:00:22.160Z,97890.00
2023-03-12T18:02:49.588Z,97897.06
2023-03-12T18:05:16.771Z,97885.03
2023-03-12T18:07:43.948Z,97843.88
2023-03-12T18:10:11.730Z,97894.84
2023-03-12T18:12:40.671Z,97894.75
2023-03-12T18:15:09.674Z,97900.75
2023-03-12T18:17:36.704Z,97900.75
2023-03-12T18:20:16.720Z,97861.63
2023-03-12T18:22:46.635Z,97923.69
2023-03-12T18:25:13.739Z,97927.97
2023-03-12T18:27:40.845Z,97948.50
2023-03-12T18:30:11.615Z,97962.22
2023-03-12T18:32:39.503Z,97950.25
2023-03-12T18:35:08.428Z,97973.50
2023-03-12T18:37:35.468Z,97965.00
2023-03-12T18:40:02.490Z,97960.63
2023-03-12T18:42:30.673Z,97969.44
2023-03-12T18:44:57.733Z,97989.59
2023-03-12T18:47:24.891Z,97994.00
2023-03-12T18:49:55.187Z,97993.00
2023-03-12T18:52:22.985Z,98008.47
2023-03-12T18:54:50.057Z,98028.88
2023-03-12T18:57:17.168Z,98013.00
2023-03-12T18:59:46.171Z,98034.63
2023-03-12T19:02:13.620Z,98027.59
2023-03-12T19:04:40.747Z,98043.94
2023-03-12T19:07:08.712Z,98057.66
2023-03-12T19:09:35.805Z,98032.34
2023-03-12T19:12:03.168Z,98067.41
2023-03-12T19:14:30.900Z,98087.97
2023-03-12T19:16:58.109Z,98102.47
2023-03-12T19:19:25.155Z,98087.56
2023-03-12T19:21:52.185Z,98099.88
2023-03-12T19:24:19.210Z,98108.44
2023-03-12T19:26:46.287Z,98102.22
2023-03-12T19:29:15.307Z,98109.03
2023-03-12T19:31:43.132Z,98132.88
2023-03-12T19:34:10.163Z,98133.34
2023-03-12T19:36:37.192Z,98125.81
2023-03-12T19:39:11.967Z,98135.31
2023-03-12T19:41:46.066Z,98165.13
2023-03-12T19:44:13.116Z,98166.69
2023-03-12T19:46:43.148Z,98168.16
2023-03-12T19:49:10.361Z,98170.66
2023-03-12T19:51:40.274Z,98169.69
2023-03-12T19:54:08.099Z,98180.69
2023-03-12T19:56:35.232Z,98190.00
2023-03-12T19:59:03.474Z,98208.72
2023-03-12T20:01:30.508Z,98197.53
2023-03-12T20:03:57.604Z,98205.78
2023-03-12T20:06:24.671Z,98211.72
2023-03-12T20:08:51.720Z,98222.53
2023-03-12T20:11:19.933Z,98192.00
2023-03-12T20:13:46.920Z,98237.56
2023-03-12T20:16:14.099Z,98237.78
2023-03-12T20:18:41.193Z,98211.88
2023-03-12T20:21:08.220Z,98216.09
2023-03-12T20:23:35.324Z,98235.16
2023-03-12T20:26:02.667Z,98211.59
2023-03-12T20:28:29.736Z,98237.44
2023-03-12T20:30:56.930Z,98239.94
2023-03-12T20:33:24.027Z,98249.91
2023-03-12T20:35:51.409Z,98265.34
2023-03-12T20:38:18.494Z,98265.16
2023-03-12T20:40:46.434Z,98259.16
2023-03-12T20:43:13.474Z,98275.91
2023-03-12T20:45:40.606Z,98261.25
2023-03-12T20:48:07.786Z,98249.94
2023-03-12T20:50:38.119Z,98279.09
2023-03-12T20:53:05.198Z,98282.66
2023-03-12T20:55:32.273Z,98281.84
2023-03-12T20:57:59.469Z,98275.50
2023-03-12T21:00:26.559Z,98287.59
2023-03-12T21:02:53.648Z,98302.84
2023-03-12T21:05:21.826Z,98311.44
2023-03-12T21:07:50.332Z,98313.09
2023-03-12T21:10:17.540Z,98304.91
2023-03-12T21:12:44.637Z,98332.44
2023-03-12T21:15:12.698Z,98335.03
2023-03-12T21:17:40.962Z,98331.78
2023-03-12T21:20:17.204Z,98333.19
2023-03-12T21:22:46.765Z,98246.41
2023-03-12T21:25:13.886Z,98338.81
2023-03-12T21:27:50.270Z,98352.44
2023-03-12T21:30:18.261Z,98351.69
2023-03-12T21:32:45.403Z,98353.00
2023-03-12T21:35:12.566Z,98367.56
2023-03-12T21:37:39.946Z,98368.09
2023-03-12T21:40:09.197Z,98310.78
2023-03-12T21:42:36.278Z,98380.09
2023-03-12T21:45:03.636Z,98383.28
2023-03-12T21:47:30.997Z,98374.41
2023-03-12T21:49:58.025Z,98377.88
2023-03-12T21:52:25.117Z,98384.56
2023-03-12T21:54:52.078Z,98395.94
2023-03-12T21:57:19.161Z,98393.38
2023-03-12T21:59:46.171Z,98395.88
2023-03-12T22:02:14.619Z,98418.13
2023-03-12T22:04:41.678Z,98414.63
2023-03-12T22:07:08.870Z,98416.84
2023-03-12T22:09:35.910Z,98433.97
2023-03-12T22:12:03.579Z,98427.97
2023-03-12T22:14:30.621Z,98431.38
2023-03-12T22:16:57.666Z,98432.81
2023-03-12T22:19:24.739Z,98418.13
2023-03-12T22:21:51.704Z,98436.34
2023-03-12T22:24:18.719Z,98437.97
2023-03-12T22:26:46.736Z,98455.16
2023-03-12T22:29:13.856Z,98446.06
2023-03-12T22:31:40.973Z,98455.34
2023-03-12T22:34:08.060Z,98476.59
2023-03-12T22:36:35.157Z,98481.72
2023-03-12T22:39:02.339Z,98481.59
2023-03-12T22:41:30.228Z,98492.28
2023-03-12T22:44:03.067Z,98490.97
2023-03-12T22:46:30.354Z,98503.59
2023-03-12T22:49:00.045Z,98505.34
2023-03-12T22:51:29.084Z,98516.34
2023-03-12T22:53:56.393Z,98448.41
2023-03-12T22:56:23.508Z,98521.06
2023-03-12T22:58:50.779Z,98526.25
2023-03-12T23:01:20.785Z,98533.88
2023-03-12T23:03:48.878Z,98519.50
2023-03-12T23:06:21.893Z,98519.28
2023-03-12T23:08:49.824Z,98526.38
2023-03-12T23:11:17.054Z,98533.25
2023-03-12T23:13:45.940Z,98523.50
2023-03-12T23:16:20.895Z,98555.69
2023-03-12T23:18:48.898Z,98546.47
2023-03-12T23:21:18.612Z,98542.34
2023-03-12T23:23:45.966Z,98566.16
2023-03-12T23:26:18.895Z,98557.06
2023-03-12T23:28:47.450Z,98546.59
2023-03-12T23:31:16.282Z,98574.13
2023-03-12T23:33:43.735Z,98562.19
2023-03-12T23:36:16.952Z,98520.72
2023-03-12T23:38:44.571Z,98549.50
2023-03-12T23:41:13.062Z,98576.34
2023-03-12T23:43:40.173Z,98584.94
2023-03-12T23:46:09.011Z,98594.13
2023-03-12T23:48:38.006Z,98592.63
2023-03-12T23:51:22.606Z,98593.25
2023-03-12T23:53:51.724Z,98552.94
2023-03-12T23:56:23.030Z,98602.50
2023-03-12T23:58:51.023Z,98607.88
